sensor_id;sensor_type;location;lat;lon;timestamp;temperature;humidity
58666;DHT22;44436;52.872;6.520;2022-07-24T00:00:52;18.00;94.20
58666;DHT22;44436;52.872;6.520;2022-07-24T00:03:17;18.00;94.20
58666;DHT22;44436;52.872;6.520;2022-07-24T00:05:43;18.00;94.30
58666;DHT22;44436;52.872;6.520;2022-07-24T00:08:09;18.00;94.30
58666;DHT22;44436;52.872;6.520;2022-07-24T00:10:34;18.00;94.40
58666;DHT22;44436;52.872;6.520;2022-07-24T00:13:00;18.00;94.50
58666;DHT22;44436;52.872;6.520;2022-07-24T00:15:26;17.90;94.50
58666;DHT22;44436;52.872;6.520;2022-07-24T00:17:51;17.90;94.60
58666;DHT22;44436;52.872;6.520;2022-07-24T00:20:17;17.90;94.70
58666;DHT22;44436;52.872;6.520;2022-07-24T00:22:43;17.90;94.70
58666;DHT22;44436;52.872;6.520;2022-07-24T00:25:08;17.90;94.70
58666;DHT22;44436;52.872;6.520;2022-07-24T00:27:34;17.90;94.70
58666;DHT22;44436;52.872;6.520;2022-07-24T00:29:59;17.80;94.70
58666;DHT22;44436;52.872;6.520;2022-07-24T00:32:25;17.90;94.90
58666;DHT22;44436;52.872;6.520;2022-07-24T00:34:51;17.80;94.90
58666;DHT22;44436;52.872;6.520;2022-07-24T00:37:16;17.70;95.00
58666;DHT22;44436;52.872;6.520;2022-07-24T00:39:42;17.70;95.00
58666;DHT22;44436;52.872;6.520;2022-07-24T00:42:08;17.70;95.00
58666;DHT22;44436;52.872;6.520;2022-07-24T00:44:33;17.70;95.00
58666;DHT22;44436;52.872;6.520;2022-07-24T00:46:59;17.70;94.90
58666;DHT22;44436;52.872;6.520;2022-07-24T00:49:25;17.70;94.90
58666;DHT22;44436;52.872;6.520;2022-07-24T00:51:51;17.80;95.00
58666;DHT22;44436;52.872;6.520;2022-07-24T00:54:19;17.60;95.10
58666;DHT22;44436;52.872;6.520;2022-07-24T00:56:48;17.60;95.20
58666;DHT22;44436;52.872;6.520;2022-07-24T00:59:14;17.70;95.20
58666;DHT22;44436;52.872;6.520;2022-07-24T01:01:40;17.60;95.10
58666;DHT22;44436;52.872;6.520;2022-07-24T01:04:06;17.60;95.10
58666;DHT22;44436;52.872;6.520;2022-07-24T01:06:31;17.70;95.10
58666;DHT22;44436;52.872;6.520;2022-07-24T01:08:57;17.60;95.10
58666;DHT22;44436;52.872;6.520;2022-07-24T01:11:23;17.60;95.20
58666;DHT22;44436;52.872;6.520;2022-07-24T01:13:50;17.60;95.20
58666;DHT22;44436;52.872;6.520;2022-07-24T01:16:16;17.50;95.20
58666;DHT22;44436;52.872;6.520;2022-07-24T01:18:42;17.60;95.10
58666;DHT22;44436;52.872;6.520;2022-07-24T01:21:08;17.50;95.10
58666;DHT22;44436;52.872;6.520;2022-07-24T01:23:34;17.60;95.10
58666;DHT22;44436;52.872;6.520;2022-07-24T01:26:00;17.50;95.30
58666;DHT22;44436;52.872;6.520;2022-07-24T01:28:27;17.40;95.40
58666;DHT22;44436;52.872;6.520;2022-07-24T01:30:53;17.40;95.40
58666;DHT22;44436;52.872;6.520;2022-07-24T01:33:19;17.50;95.30
58666;DHT22;44436;52.872;6.520;2022-07-24T01:35:45;17.50;95.30
58666;DHT22;44436;52.872;6.520;2022-07-24T01:38:11;17.50;95.20
58666;DHT22;44436;52.872;6.520;2022-07-24T01:40:38;17.50;95.30
58666;DHT22;44436;52.872;6.520;2022-07-24T01:43:04;17.40;95.30
58666;DHT22;44436;52.872;6.520;2022-07-24T01:45:30;17.40;95.30
58666;DHT22;44436;52.872;6.520;2022-07-24T01:47:56;17.40;95.40
58666;DHT22;44436;52.872;6.520;2022-07-24T01:50:21;17.30;95.40
58666;DHT22;44436;52.872;6.520;2022-07-24T01:52:47;17.30;95.50
58666;DHT22;44436;52.872;6.520;2022-07-24T01:55:13;17.30;95.60
58666;DHT22;44436;52.872;6.520;2022-07-24T01:57:39;17.20;95.80
58666;DHT22;44436;52.872;6.520;2022-07-24T02:00:06;17.20;95.80
58666;DHT22;44436;52.872;6.520;2022-07-24T02:02:36;17.20;95.80
58666;DHT22;44436;52.872;6.520;2022-07-24T02:05:02;17.10;95.80
58666;DHT22;44436;52.872;6.520;2022-07-24T02:07:28;17.10;95.90
58666;DHT22;44436;52.872;6.520;2022-07-24T02:09:53;17.10;95.90
58666;DHT22;44436;52.872;6.520;2022-07-24T02:12:19;17.10;96.00
58666;DHT22;44436;52.872;6.520;2022-07-24T02:14:45;17.00;96.00
58666;DHT22;44436;52.872;6.520;2022-07-24T02:17:10;17.10;96.00
58666;DHT22;44436;52.872;6.520;2022-07-24T02:19:36;17.10;96.00
58666;DHT22;44436;52.872;6.520;2022-07-24T02:22:01;17.00;96.00
58666;DHT22;44436;52.872;6.520;2022-07-24T02:24:27;17.00;96.00
58666;DHT22;44436;52.872;6.520;2022-07-24T02:26:53;17.00;96.00
58666;DHT22;44436;52.872;6.520;2022-07-24T02:29:18;17.00;96.00
58666;DHT22;44436;52.872;6.520;2022-07-24T02:31:44;17.00;96.10
58666;DHT22;44436;52.872;6.520;2022-07-24T02:34:10;17.00;96.20
58666;DHT22;44436;52.872;6.520;2022-07-24T02:36:35;16.90;96.20
58666;DHT22;44436;52.872;6.520;2022-07-24T02:39:01;16.80;96.30
58666;DHT22;44436;52.872;6.520;2022-07-24T02:41:27;16.80;96.50
58666;DHT22;44436;52.872;6.520;2022-07-24T02:43:53;16.80;96.60
58666;DHT22;44436;52.872;6.520;2022-07-24T02:46:19;16.80;96.70
58666;DHT22;44436;52.872;6.520;2022-07-24T02:48:44;16.80;96.70
58666;DHT22;44436;52.872;6.520;2022-07-24T02:51:10;16.70;96.80
58666;DHT22;44436;52.872;6.520;2022-07-24T02:53:36;16.70;96.80
58666;DHT22;44436;52.872;6.520;2022-07-24T02:56:02;16.70;96.90
58666;DHT22;44436;52.872;6.520;2022-07-24T02:58:28;16.70;97.00
58666;DHT22;44436;52.872;6.520;2022-07-24T03:00:54;16.60;97.10
58666;DHT22;44436;52.872;6.520;2022-07-24T03:03:19;16.60;97.10
58666;DHT22;44436;52.872;6.520;2022-07-24T03:05:45;16.70;97.10
58666;DHT22;44436;52.872;6.520;2022-07-24T03:08:10;16.60;97.10
58666;DHT22;44436;52.872;6.520;2022-07-24T03:10:36;16.60;97.10
58666;DHT22;44436;52.872;6.520;2022-07-24T03:13:02;16.60;97.20
58666;DHT22;44436;52.872;6.520;2022-07-24T03:15:28;16.70;97.20
58666;DHT22;44436;52.872;6.520;2022-07-24T03:17:55;16.60;97.10
58666;DHT22;44436;52.872;6.520;2022-07-24T03:20:23;16.60;97.20
58666;DHT22;44436;52.872;6.520;2022-07-24T03:22:49;16.60;97.20
58666;DHT22;44436;52.872;6.520;2022-07-24T03:25:15;16.50;97.20
58666;DHT22;44436;52.872;6.520;2022-07-24T03:27:41;16.60;97.20
58666;DHT22;44436;52.872;6.520;2022-07-24T03:30:08;16.60;97.30
58666;DHT22;44436;52.872;6.520;2022-07-24T03:32:34;16.60;97.20
58666;DHT22;44436;52.872;6.520;2022-07-24T03:35:00;16.60;97.20
58666;DHT22;44436;52.872;6.520;2022-07-24T03:37:26;16.60;97.20
58666;DHT22;44436;52.872;6.520;2022-07-24T03:39:51;16.60;97.20
58666;DHT22;44436;52.872;6.520;2022-07-24T03:42:17;16.60;97.30
58666;DHT22;44436;52.872;6.520;2022-07-24T03:44:42;16.50;97.30
58666;DHT22;44436;52.872;6.520;2022-07-24T03:47:08;16.60;97.40
58666;DHT22;44436;52.872;6.520;2022-07-24T03:49:34;16.50;97.40
58666;DHT22;44436;52.872;6.520;2022-07-24T03:51:59;16.60;97.40
58666;DHT22;44436;52.872;6.520;2022-07-24T03:54:25;16.60;97.30
58666;DHT22;44436;52.872;6.520;2022-07-24T03:56:51;16.60;97.30
58666;DHT22;44436;52.872;6.520;2022-07-24T03:59:18;16.60;97.40
58666;DHT22;44436;52.872;6.520;2022-07-24T04:01:44;16.60;97.40
58666;DHT22;44436;52.872;6.520;2022-07-24T04:04:09;16.60;97.30
58666;DHT22;44436;52.872;6.520;2022-07-24T04:06:35;16.60;97.30
58666;DHT22;44436;52.872;6.520;2022-07-24T04:09:04;16.50;97.40
58666;DHT22;44436;52.872;6.520;2022-07-24T04:11:29;16.60;97.80
58666;DHT22;44436;52.872;6.520;2022-07-24T04:13:55;16.50;97.50
58666;DHT22;44436;52.872;6.520;2022-07-24T04:16:21;16.50;97.60
58666;DHT22;44436;52.872;6.520;2022-07-24T04:18:46;16.50;97.50
58666;DHT22;44436;52.872;6.520;2022-07-24T04:21:12;16.60;97.60
58666;DHT22;44436;52.872;6.520;2022-07-24T04:23:38;16.60;97.60
58666;DHT22;44436;52.872;6.520;2022-07-24T04:26:04;16.60;97.60
58666;DHT22;44436;52.872;6.520;2022-07-24T04:28:29;16.60;97.60
58666;DHT22;44436;52.872;6.520;2022-07-24T04:30:55;16.60;97.60
58666;DHT22;44436;52.872;6.520;2022-07-24T04:33:20;16.60;97.60
58666;DHT22;44436;52.872;6.520;2022-07-24T04:35:46;16.60;97.50
58666;DHT22;44436;52.872;6.520;2022-07-24T04:38:12;16.60;97.60
58666;DHT22;44436;52.872;6.520;2022-07-24T04:40:38;16.50;97.60
58666;DHT22;44436;52.872;6.520;2022-07-24T04:43:04;16.50;97.60
58666;DHT22;44436;52.872;6.520;2022-07-24T04:45:29;16.60;97.70
58666;DHT22;44436;52.872;6.520;2022-07-24T04:47:55;16.60;97.70
58666;DHT22;44436;52.872;6.520;2022-07-24T04:50:21;16.60;98.10
58666;DHT22;44436;52.872;6.520;2022-07-24T04:52:46;16.50;97.70
58666;DHT22;44436;52.872;6.520;2022-07-24T04:55:12;16.60;97.80
58666;DHT22;44436;52.872;6.520;2022-07-24T04:57:38;16.60;97.80
58666;DHT22;44436;52.872;6.520;2022-07-24T05:00:06;16.70;97.90
58666;DHT22;44436;52.872;6.520;2022-07-24T05:02:33;16.70;97.90
58666;DHT22;44436;52.872;6.520;2022-07-24T05:04:58;16.70;97.80
58666;DHT22;44436;52.872;6.520;2022-07-24T05:07:24;16.80;97.80
58666;DHT22;44436;52.872;6.520;2022-07-24T05:09:49;16.80;97.80
58666;DHT22;44436;52.872;6.520;2022-07-24T05:12:15;16.80;97.80
58666;DHT22;44436;52.872;6.520;2022-07-24T05:14:41;16.90;97.70
58666;DHT22;44436;52.872;6.520;2022-07-24T05:17:07;16.90;97.70
58666;DHT22;44436;52.872;6.520;2022-07-24T05:19:32;16.90;97.70
58666;DHT22;44436;52.872;6.520;2022-07-24T05:21:58;17.00;97.70
58666;DHT22;44436;52.872;6.520;2022-07-24T05:24:23;17.00;98.00
58666;DHT22;44436;52.872;6.520;2022-07-24T05:26:51;17.10;97.90
58666;DHT22;44436;52.872;6.520;2022-07-24T05:29:16;17.10;97.80
58666;DHT22;44436;52.872;6.520;2022-07-24T05:31:42;17.20;98.20
58666;DHT22;44436;52.872;6.520;2022-07-24T05:34:08;17.30;97.90
58666;DHT22;44436;52.872;6.520;2022-07-24T05:36:34;17.30;97.80
58666;DHT22;44436;52.872;6.520;2022-07-24T05:39:00;17.40;97.70
58666;DHT22;44436;52.872;6.520;2022-07-24T05:41:26;17.40;97.60
58666;DHT22;44436;52.872;6.520;2022-07-24T05:43:51;17.50;97.60
58666;DHT22;44436;52.872;6.520;2022-07-24T05:46:17;17.50;97.50
58666;DHT22;44436;52.872;6.520;2022-07-24T05:48:43;17.50;97.50
58666;DHT22;44436;52.872;6.520;2022-07-24T05:51:08;17.50;97.50
58666;DHT22;44436;52.872;6.520;2022-07-24T05:53:34;17.60;97.50
58666;DHT22;44436;52.872;6.520;2022-07-24T05:56:00;17.70;97.50
58666;DHT22;44436;52.872;6.520;2022-07-24T05:58:25;17.70;97.50
58666;DHT22;44436;52.872;6.520;2022-07-24T06:00:51;17.80;97.40
58666;DHT22;44436;52.872;6.520;2022-07-24T06:03:16;17.80;97.40
58666;DHT22;44436;52.872;6.520;2022-07-24T06:05:42;17.90;97.20
58666;DHT22;44436;52.872;6.520;2022-07-24T06:08:08;17.90;97.30
58666;DHT22;44436;52.872;6.520;2022-07-24T06:10:34;18.00;97.20
58666;DHT22;44436;52.872;6.520;2022-07-24T06:13:00;18.00;97.20
58666;DHT22;44436;52.872;6.520;2022-07-24T06:15:26;18.10;97.10
58666;DHT22;44436;52.872;6.520;2022-07-24T06:17:51;18.20;96.80
58666;DHT22;44436;52.872;6.520;2022-07-24T06:20:17;18.30;96.50
58666;DHT22;44436;52.872;6.520;2022-07-24T06:22:44;18.40;96.40
58666;DHT22;44436;52.872;6.520;2022-07-24T06:25:10;18.40;96.20
58666;DHT22;44436;52.872;6.520;2022-07-24T06:27:45;18.50;96.20
58666;DHT22;44436;52.872;6.520;2022-07-24T06:30:24;18.60;96.20
58666;DHT22;44436;52.872;6.520;2022-07-24T06:32:53;18.70;96.00
58666;DHT22;44436;52.872;6.520;2022-07-24T06:35:19;18.70;96.00
58666;DHT22;44436;52.872;6.520;2022-07-24T06:37:45;18.80;95.90
58666;DHT22;44436;52.872;6.520;2022-07-24T06:40:11;18.90;95.90
58666;DHT22;44436;52.872;6.520;2022-07-24T06:42:37;18.90;95.90
58666;DHT22;44436;52.872;6.520;2022-07-24T06:45:03;19.00;95.70
58666;DHT22;44436;52.872;6.520;2022-07-24T06:47:29;19.10;95.70
58666;DHT22;44436;52.872;6.520;2022-07-24T06:49:55;19.20;95.70
58666;DHT22;44436;52.872;6.520;2022-07-24T06:52:21;19.30;95.70
58666;DHT22;44436;52.872;6.520;2022-07-24T06:54:47;19.40;95.80
58666;DHT22;44436;52.872;6.520;2022-07-24T06:57:13;19.40;95.50
58666;DHT22;44436;52.872;6.520;2022-07-24T06:59:39;19.50;95.60
58666;DHT22;44436;52.872;6.520;2022-07-24T07:02:05;19.60;95.20
58666;DHT22;44436;52.872;6.520;2022-07-24T07:04:31;19.70;95.10
58666;DHT22;44436;52.872;6.520;2022-07-24T07:06:56;19.80;94.90
58666;DHT22;44436;52.872;6.520;2022-07-24T07:09:22;19.80;94.70
58666;DHT22;44436;52.872;6.520;2022-07-24T07:11:47;19.90;94.70
58666;DHT22;44436;52.872;6.520;2022-07-24T07:14:13;20.00;94.70
58666;DHT22;44436;52.872;6.520;2022-07-24T07:16:39;20.10;94.70
58666;DHT22;44436;52.872;6.520;2022-07-24T07:19:04;20.20;94.50
58666;DHT22;44436;52.872;6.520;2022-07-24T07:21:30;20.30;94.30
58666;DHT22;44436;52.872;6.520;2022-07-24T07:23:56;20.40;94.10
58666;DHT22;44436;52.872;6.520;2022-07-24T07:26:22;20.50;93.90
58666;DHT22;44436;52.872;6.520;2022-07-24T07:28:48;20.60;94.10
58666;DHT22;44436;52.872;6.520;2022-07-24T07:31:13;20.70;93.40
58666;DHT22;44436;52.872;6.520;2022-07-24T07:33:39;20.80;93.20
58666;DHT22;44436;52.872;6.520;2022-07-24T07:36:05;20.90;93.00
58666;DHT22;44436;52.872;6.520;2022-07-24T07:38:30;21.10;93.10
58666;DHT22;44436;52.872;6.520;2022-07-24T07:40:56;21.20;92.80
58666;DHT22;44436;52.872;6.520;2022-07-24T07:43:22;21.30;92.80
58666;DHT22;44436;52.872;6.520;2022-07-24T07:45:47;21.40;91.80
58666;DHT22;44436;52.872;6.520;2022-07-24T07:48:13;21.50;91.10
58666;DHT22;44436;52.872;6.520;2022-07-24T07:50:39;21.60;90.50
58666;DHT22;44436;52.872;6.520;2022-07-24T07:53:04;21.70;90.20
58666;DHT22;44436;52.872;6.520;2022-07-24T07:55:30;21.70;90.00
58666;DHT22;44436;52.872;6.520;2022-07-24T07:57:55;21.80;89.60
58666;DHT22;44436;52.872;6.520;2022-07-24T08:00:22;21.80;89.60
58666;DHT22;44436;52.872;6.520;2022-07-24T08:02:47;21.90;89.30
58666;DHT22;44436;52.872;6.520;2022-07-24T08:05:13;22.00;89.00
58666;DHT22;44436;52.872;6.520;2022-07-24T08:07:39;22.10;88.50
58666;DHT22;44436;52.872;6.520;2022-07-24T08:10:05;22.20;87.90
58666;DHT22;44436;52.872;6.520;2022-07-24T08:12:31;22.40;86.50
58666;DHT22;44436;52.872;6.520;2022-07-24T08:14:57;22.50;85.90
58666;DHT22;44436;52.872;6.520;2022-07-24T08:17:22;22.70;85.40
58666;DHT22;44436;52.872;6.520;2022-07-24T08:19:48;22.80;84.30
58666;DHT22;44436;52.872;6.520;2022-07-24T08:22:13;22.80;84.20
58666;DHT22;44436;52.872;6.520;2022-07-24T08:24:39;22.80;83.20
58666;DHT22;44436;52.872;6.520;2022-07-24T08:27:05;22.90;83.80
58666;DHT22;44436;52.872;6.520;2022-07-24T08:29:31;23.00;84.40
58666;DHT22;44436;52.872;6.520;2022-07-24T08:31:57;23.00;83.60
58666;DHT22;44436;52.872;6.520;2022-07-24T08:34:22;23.20;84.00
58666;DHT22;44436;52.872;6.520;2022-07-24T08:36:49;23.20;83.60
58666;DHT22;44436;52.872;6.520;2022-07-24T08:39:15;23.30;84.00
58666;DHT22;44436;52.872;6.520;2022-07-24T08:41:41;23.30;83.20
58666;DHT22;44436;52.872;6.520;2022-07-24T08:44:08;23.30;83.10
58666;DHT22;44436;52.872;6.520;2022-07-24T08:46:37;23.40;83.30
58666;DHT22;44436;52.872;6.520;2022-07-24T08:49:09;23.40;81.80
58666;DHT22;44436;52.872;6.520;2022-07-24T08:51:38;23.40;81.40
58666;DHT22;44436;52.872;6.520;2022-07-24T08:54:09;23.50;80.90
58666;DHT22;44436;52.872;6.520;2022-07-24T08:56:38;23.50;81.30
58666;DHT22;44436;52.872;6.520;2022-07-24T08:59:04;23.60;81.70
58666;DHT22;44436;52.872;6.520;2022-07-24T09:01:30;23.80;81.50
58666;DHT22;44436;52.872;6.520;2022-07-24T09:03:55;23.90;81.10
58666;DHT22;44436;52.872;6.520;2022-07-24T09:06:21;23.90;80.00
58666;DHT22;44436;52.872;6.520;2022-07-24T09:09:01;23.90;79.60
58666;DHT22;44436;52.872;6.520;2022-07-24T09:11:28;24.00;79.00
58666;DHT22;44436;52.872;6.520;2022-07-24T09:14:01;23.90;79.10
58666;DHT22;44436;52.872;6.520;2022-07-24T09:16:45;23.90;78.20
58666;DHT22;44436;52.872;6.520;2022-07-24T09:19:11;24.00;78.60
58666;DHT22;44436;52.872;6.520;2022-07-24T09:21:40;24.20;78.90
58666;DHT22;44436;52.872;6.520;2022-07-24T09:24:18;24.30;78.00
58666;DHT22;44436;52.872;6.520;2022-07-24T09:26:45;24.40;76.30
58666;DHT22;44436;52.872;6.520;2022-07-24T09:29:12;24.40;76.90
58666;DHT22;44436;52.872;6.520;2022-07-24T09:31:58;24.50;75.70
58666;DHT22;44436;52.872;6.520;2022-07-24T09:34:27;24.60;75.60
58666;DHT22;44436;52.872;6.520;2022-07-24T09:37:05;24.60;76.20
58666;DHT22;44436;52.872;6.520;2022-07-24T09:39:33;24.70;75.60
58666;DHT22;44436;52.872;6.520;2022-07-24T09:42:00;24.60;74.50
58666;DHT22;44436;52.872;6.520;2022-07-24T09:44:26;24.60;74.70
58666;DHT22;44436;52.872;6.520;2022-07-24T09:47:00;24.60;73.70
58666;DHT22;44436;52.872;6.520;2022-07-24T09:49:27;24.70;73.90
58666;DHT22;44436;52.872;6.520;2022-07-24T09:54:50;24.90;74.50
58666;DHT22;44436;52.872;6.520;2022-07-24T09:57:27;25.00;74.80
58666;DHT22;44436;52.872;6.520;2022-07-24T09:59:54;25.00;72.50
58666;DHT22;44436;52.872;6.520;2022-07-24T10:02:23;25.10;72.30
58666;DHT22;44436;52.872;6.520;2022-07-24T10:04:51;25.10;73.10
58666;DHT22;44436;52.872;6.520;2022-07-24T10:07:20;25.20;72.30
58666;DHT22;44436;52.872;6.520;2022-07-24T10:09:49;25.30;71.50
58666;DHT22;44436;52.872;6.520;2022-07-24T10:12:17;25.40;71.30
58666;DHT22;44436;52.872;6.520;2022-07-24T10:14:45;25.50;71.00
58666;DHT22;44436;52.872;6.520;2022-07-24T10:17:11;25.50;70.20
58666;DHT22;44436;52.872;6.520;2022-07-24T10:19:45;25.60;69.40
58666;DHT22;44436;52.872;6.520;2022-07-24T10:22:15;25.70;69.30
58666;DHT22;44436;52.872;6.520;2022-07-24T10:24:54;25.80;69.00
58666;DHT22;44436;52.872;6.520;2022-07-24T10:27:28;25.90;68.00
58666;DHT22;44436;52.872;6.520;2022-07-24T10:29:55;25.90;68.10
58666;DHT22;44436;52.872;6.520;2022-07-24T10:32:23;25.90;68.10
58666;DHT22;44436;52.872;6.520;2022-07-24T10:40:42;26.30;69.40
58666;DHT22;44436;52.872;6.520;2022-07-24T10:43:14;26.50;67.20
58666;DHT22;44436;52.872;6.520;2022-07-24T10:53:27;26.80;65.90
58666;DHT22;44436;52.872;6.520;2022-07-24T10:55:53;26.70;64.60
58666;DHT22;44436;52.872;6.520;2022-07-24T11:04:01;26.50;67.70
58666;DHT22;44436;52.872;6.520;2022-07-24T11:06:46;26.50;67.20
58666;DHT22;44436;52.872;6.520;2022-07-24T11:09:12;26.70;66.60
58666;DHT22;44436;52.872;6.520;2022-07-24T11:14:46;26.90;64.00
58666;DHT22;44436;52.872;6.520;2022-07-24T11:17:40;26.90;64.00
58666;DHT22;44436;52.872;6.520;2022-07-24T11:20:16;27.00;64.00
58666;DHT22;44436;52.872;6.520;2022-07-24T11:22:51;27.10;64.20
58666;DHT22;44436;52.872;6.520;2022-07-24T11:25:28;27.30;63.00
58666;DHT22;44436;52.872;6.520;2022-07-24T11:30:31;27.30;61.60
58666;DHT22;44436;52.872;6.520;2022-07-24T11:32:57;27.30;62.00
58666;DHT22;44436;52.872;6.520;2022-07-24T11:35:28;27.40;62.20
58666;DHT22;44436;52.872;6.520;2022-07-24T11:37:54;27.60;60.80
58666;DHT22;44436;52.872;6.520;2022-07-24T11:40:21;27.60;61.60
58666;DHT22;44436;52.872;6.520;2022-07-24T11:42:54;27.70;62.20
58666;DHT22;44436;52.872;6.520;2022-07-24T11:45:20;27.80;63.50
58666;DHT22;44436;52.872;6.520;2022-07-24T11:47:46;28.00;62.20
58666;DHT22;44436;52.872;6.520;2022-07-24T11:50:11;28.10;62.00
58666;DHT22;44436;52.872;6.520;2022-07-24T11:52:39;28.10;59.60
58666;DHT22;44436;52.872;6.520;2022-07-24T11:55:13;28.20;59.20
58666;DHT22;44436;52.872;6.520;2022-07-24T11:57:41;28.10;58.30
58666;DHT22;44436;52.872;6.520;2022-07-24T12:00:11;28.10;58.80
58666;DHT22;44436;52.872;6.520;2022-07-24T12:02:45;28.10;57.90
58666;DHT22;44436;52.872;6.520;2022-07-24T12:05:10;28.00;57.20
58666;DHT22;44436;52.872;6.520;2022-07-24T12:07:36;27.90;56.70
58666;DHT22;44436;52.872;6.520;2022-07-24T12:10:03;27.80;56.60
58666;DHT22;44436;52.872;6.520;2022-07-24T12:12:37;27.80;56.60
58666;DHT22;44436;52.872;6.520;2022-07-24T12:15:07;27.70;57.00
58666;DHT22;44436;52.872;6.520;2022-07-24T12:17:52;27.70;57.20
58666;DHT22;44436;52.872;6.520;2022-07-24T12:20:23;27.80;56.80
58666;DHT22;44436;52.872;6.520;2022-07-24T12:22:49;27.80;57.10
58666;DHT22;44436;52.872;6.520;2022-07-24T12:25:15;27.90;57.40
58666;DHT22;44436;52.872;6.520;2022-07-24T12:27:42;28.00;57.30
58666;DHT22;44436;52.872;6.520;2022-07-24T12:30:22;28.20;56.70
58666;DHT22;44436;52.872;6.520;2022-07-24T12:33:02;28.20;56.30
58666;DHT22;44436;52.872;6.520;2022-07-24T12:35:30;28.30;57.20
58666;DHT22;44436;52.872;6.520;2022-07-24T12:37:57;28.40;57.50
58666;DHT22;44436;52.872;6.520;2022-07-24T12:43:17;28.70;57.10
58666;DHT22;44436;52.872;6.520;2022-07-24T12:45:42;28.70;55.50
58666;DHT22;44436;52.872;6.520;2022-07-24T12:51:09;28.70;54.30
58666;DHT22;44436;52.872;6.520;2022-07-24T12:53:38;28.60;55.00
58666;DHT22;44436;52.872;6.520;2022-07-24T12:56:16;28.60;55.00
58666;DHT22;44436;52.872;6.520;2022-07-24T12:58:54;28.60;55.40
58666;DHT22;44436;52.872;6.520;2022-07-24T13:01:20;28.60;56.30
58666;DHT22;44436;52.872;6.520;2022-07-24T13:04:00;28.70;56.40
58666;DHT22;44436;52.872;6.520;2022-07-24T13:06:34;28.70;55.90
58666;DHT22;44436;52.872;6.520;2022-07-24T13:09:01;28.80;56.00
58666;DHT22;44436;52.872;6.520;2022-07-24T13:11:27;28.80;55.30
58666;DHT22;44436;52.872;6.520;2022-07-24T13:13:53;28.70;54.00
58666;DHT22;44436;52.872;6.520;2022-07-24T13:16:19;28.60;53.90
58666;DHT22;44436;52.872;6.520;2022-07-24T13:18:45;28.50;54.80
58666;DHT22;44436;52.872;6.520;2022-07-24T13:21:10;28.60;55.00
58666;DHT22;44436;52.872;6.520;2022-07-24T13:23:36;28.60;54.80
58666;DHT22;44436;52.872;6.520;2022-07-24T13:26:02;28.60;55.50
58666;DHT22;44436;52.872;6.520;2022-07-24T13:28:27;28.70;55.60
58666;DHT22;44436;52.872;6.520;2022-07-24T13:30:53;28.80;54.80
58666;DHT22;44436;52.872;6.520;2022-07-24T13:33:19;28.90;55.20
58666;DHT22;44436;52.872;6.520;2022-07-24T13:35:44;29.10;55.00
58666;DHT22;44436;52.872;6.520;2022-07-24T13:38:10;29.20;54.50
58666;DHT22;44436;52.872;6.520;2022-07-24T13:40:35;29.30;54.30
58666;DHT22;44436;52.872;6.520;2022-07-24T13:43:01;29.40;53.80
58666;DHT22;44436;52.872;6.520;2022-07-24T13:45:27;29.40;53.60
58666;DHT22;44436;52.872;6.520;2022-07-24T13:47:52;29.40;53.10
58666;DHT22;44436;52.872;6.520;2022-07-24T13:50:18;29.40;53.40
58666;DHT22;44436;52.872;6.520;2022-07-24T13:52:44;29.40;52.80
58666;DHT22;44436;52.872;6.520;2022-07-24T13:55:09;29.60;53.10
58666;DHT22;44436;52.872;6.520;2022-07-24T13:57:35;29.70;52.90
58666;DHT22;44436;52.872;6.520;2022-07-24T14:00:00;29.80;52.20
58666;DHT22;44436;52.872;6.520;2022-07-24T14:02:26;29.80;52.10
58666;DHT22;44436;52.872;6.520;2022-07-24T14:04:52;29.90;52.40
58666;DHT22;44436;52.872;6.520;2022-07-24T14:07:17;30.00;52.30
58666;DHT22;44436;52.872;6.520;2022-07-24T14:09:43;30.10;52.30
58666;DHT22;44436;52.872;6.520;2022-07-24T14:12:09;30.20;52.70
58666;DHT22;44436;52.872;6.520;2022-07-24T14:14:35;30.30;51.70
58666;DHT22;44436;52.872;6.520;2022-07-24T14:17:00;30.20;51.20
58666;DHT22;44436;52.872;6.520;2022-07-24T14:19:26;30.20;51.30
58666;DHT22;44436;52.872;6.520;2022-07-24T14:21:52;30.40;51.60
58666;DHT22;44436;52.872;6.520;2022-07-24T14:24:18;30.40;52.80
58666;DHT22;44436;52.872;6.520;2022-07-24T14:26:45;30.60;51.50
58666;DHT22;44436;52.872;6.520;2022-07-24T14:29:12;30.60;50.60
58666;DHT22;44436;52.872;6.520;2022-07-24T14:31:37;30.60;50.30
58666;DHT22;44436;52.872;6.520;2022-07-24T14:34:03;30.80;50.30
58666;DHT22;44436;52.872;6.520;2022-07-24T14:36:29;30.90;50.00
58666;DHT22;44436;52.872;6.520;2022-07-24T14:38:55;30.90;49.90
58666;DHT22;44436;52.872;6.520;2022-07-24T14:41:21;30.90;49.40
58666;DHT22;44436;52.872;6.520;2022-07-24T14:43:46;30.80;49.80
58666;DHT22;44436;52.872;6.520;2022-07-24T14:46:12;30.80;49.80
58666;DHT22;44436;52.872;6.520;2022-07-24T14:48:40;30.80;50.20
58666;DHT22;44436;52.872;6.520;2022-07-24T14:51:05;30.80;50.20
58666;DHT22;44436;52.872;6.520;2022-07-24T14:53:31;30.90;50.20
58666;DHT22;44436;52.872;6.520;2022-07-24T14:55:57;30.90;50.00
58666;DHT22;44436;52.872;6.520;2022-07-24T14:58:22;31.00;50.80
58666;DHT22;44436;52.872;6.520;2022-07-24T15:00:48;31.20;50.00
58666;DHT22;44436;52.872;6.520;2022-07-24T15:03:14;31.40;49.70
58666;DHT22;44436;52.872;6.520;2022-07-24T15:05:40;31.50;49.60
58666;DHT22;44436;52.872;6.520;2022-07-24T15:08:05;31.60;49.60
58666;DHT22;44436;52.872;6.520;2022-07-24T15:10:31;31.60;48.90
58666;DHT22;44436;52.872;6.520;2022-07-24T15:12:57;31.70;48.70
58666;DHT22;44436;52.872;6.520;2022-07-24T15:15:23;31.80;48.80
58666;DHT22;44436;52.872;6.520;2022-07-24T15:17:48;31.90;49.00
58666;DHT22;44436;52.872;6.520;2022-07-24T15:20:14;32.20;49.00
58666;DHT22;44436;52.872;6.520;2022-07-24T15:22:39;32.50;48.80
58666;DHT22;44436;52.872;6.520;2022-07-24T15:25:06;32.70;49.40
58666;DHT22;44436;52.872;6.520;2022-07-24T15:27:31;33.00;48.60
58666;DHT22;44436;52.872;6.520;2022-07-24T15:29:57;33.10;47.60
58666;DHT22;44436;52.872;6.520;2022-07-24T15:32:22;33.10;47.70
58666;DHT22;44436;52.872;6.520;2022-07-24T15:34:48;33.20;48.00
58666;DHT22;44436;52.872;6.520;2022-07-24T15:37:14;33.40;47.60
58666;DHT22;44436;52.872;6.520;2022-07-24T15:39:39;33.60;48.30
58666;DHT22;44436;52.872;6.520;2022-07-24T15:42:05;33.80;47.40
58666;DHT22;44436;52.872;6.520;2022-07-24T15:44:31;34.00;47.30
58666;DHT22;44436;52.872;6.520;2022-07-24T15:46:57;34.20;46.90
58666;DHT22;44436;52.872;6.520;2022-07-24T15:49:22;34.10;46.60
58666;DHT22;44436;52.872;6.520;2022-07-24T15:51:48;34.30;46.40
58666;DHT22;44436;52.872;6.520;2022-07-24T15:54:13;34.50;46.80
58666;DHT22;44436;52.872;6.520;2022-07-24T15:56:39;34.70;46.80
58666;DHT22;44436;52.872;6.520;2022-07-24T15:59:05;34.70;45.70
58666;DHT22;44436;52.872;6.520;2022-07-24T16:01:32;34.80;45.00